sensor_id;sensor_type;location;lat;lon;timestamp;P1;durP1;ratioP1;P2;durP2;ratioP2
46377;SDS011;32083;47.360;9.650;2023-05-14T00:01:01;11.77;;;10.68;;
46377;SDS011;32083;47.360;9.650;2023-05-14T00:04:17;12.13;;;11.02;;
46377;SDS011;32083;47.360;9.650;2023-05-14T00:07:17;14.45;;;12.63;;
46377;SDS011;32083;47.360;9.650;2023-05-14T00:35:03;13.23;;;11.95;;
46377;SDS011;32083;47.360;9.650;2023-05-14T00:44:00;12.68;;;11.30;;
46377;SDS011;32083;47.360;9.650;2023-05-14T00:47:33;12.38;;;11.18;;
46377;SDS011;32083;47.360;9.650;2023-05-14T00:57:39;12.80;;;11.60;;
46377;SDS011;32083;47.360;9.650;2023-05-14T01:00:46;12.35;;;11.23;;
46377;SDS011;32083;47.360;9.650;2023-05-14T01:03:42;12.93;;;11.73;;
46377;SDS011;32083;47.360;9.650;2023-05-14T02:00:19;13.27;;;12.07;;
46377;SDS011;32083;47.360;9.650;2023-05-14T02:03:31;12.98;;;11.45;;
46377;SDS011;32083;47.360;9.650;2023-05-14T02:06:39;19.45;;;16.70;;
46377;SDS011;32083;47.360;9.650;2023-05-14T02:09:46;16.42;;;14.73;;
46377;SDS011;32083;47.360;9.650;2023-05-14T02:23:49;12.18;;;11.02;;
46377;SDS011;32083;47.360;9.650;2023-05-14T02:26:43;12.40;;;11.30;;
46377;SDS011;32083;47.360;9.650;2023-05-14T02:29:24;12.70;;;11.50;;
46377;SDS011;32083;47.360;9.650;2023-05-14T02:32:13;12.68;;;11.50;;
46377;SDS011;32083;47.360;9.650;2023-05-14T03:51:06;14.63;;;13.13;;
46377;SDS011;32083;47.360;9.650;2023-05-14T03:54:27;15.15;;;13.75;;
46377;SDS011;32083;47.360;9.650;2023-05-14T03:57:29;15.77;;;14.27;;
46377;SDS011;32083;47.360;9.650;2023-05-14T04:00:23;15.55;;;14.05;;
46377;SDS011;32083;47.360;9.650;2023-05-14T04:03:27;15.73;;;14.23;;
46377;SDS011;32083;47.360;9.650;2023-05-14T04:06:07;16.08;;;14.38;;
46377;SDS011;32083;47.360;9.650;2023-05-14T04:08:33;16.90;;;15.20;;
46377;SDS011;32083;47.360;9.650;2023-05-14T04:10:59;16.08;;;14.48;;
46377;SDS011;32083;47.360;9.650;2023-05-14T04:13:25;15.05;;;13.63;;
46377;SDS011;32083;47.360;9.650;2023-05-14T04:15:51;15.98;;;14.45;;
46377;SDS011;32083;47.360;9.650;2023-05-14T04:18:17;16.52;;;14.93;;
46377;SDS011;32083;47.360;9.650;2023-05-14T04:20:43;15.43;;;13.82;;
46377;SDS011;32083;47.360;9.650;2023-05-14T04:23:09;17.52;;;15.95;;
46377;SDS011;32083;47.360;9.650;2023-05-14T04:25:35;17.83;;;16.13;;
46377;SDS011;32083;47.360;9.650;2023-05-14T04:28:01;17.42;;;15.82;;
46377;SDS011;32083;47.360;9.650;2023-05-14T04:30:27;18.67;;;16.88;;
46377;SDS011;32083;47.360;9.650;2023-05-14T04:32:53;17.40;;;15.70;;
46377;SDS011;32083;47.360;9.650;2023-05-14T04:35:20;18.02;;;16.13;;
46377;SDS011;32083;47.360;9.650;2023-05-14T04:37:46;18.88;;;16.98;;
46377;SDS011;32083;47.360;9.650;2023-05-14T04:40:13;18.02;;;16.23;;
46377;SDS011;32083;47.360;9.650;2023-05-14T04:42:41;19.13;;;17.23;;
46377;SDS011;32083;47.360;9.650;2023-05-14T04:45:08;19.63;;;17.73;;
46377;SDS011;32083;47.360;9.650;2023-05-14T04:47:34;18.52;;;16.63;;
46377;SDS011;32083;47.360;9.650;2023-05-14T04:50:00;18.38;;;16.58;;
46377;SDS011;32083;47.360;9.650;2023-05-14T04:52:27;19.70;;;17.35;;
46377;SDS011;32083;47.360;9.650;2023-05-14T04:54:53;19.85;;;17.85;;
46377;SDS011;32083;47.360;9.650;2023-05-14T04:57:19;18.73;;;16.92;;
46377;SDS011;32083;47.360;9.650;2023-05-14T04:59:45;19.13;;;17.17;;
46377;SDS011;32083;47.360;9.650;2023-05-14T05:02:11;19.63;;;17.58;;
46377;SDS011;32083;47.360;9.650;2023-05-14T05:04:37;19.95;;;17.88;;
46377;SDS011;32083;47.360;9.650;2023-05-14T05:07:03;18.60;;;16.73;;
46377;SDS011;32083;47.360;9.650;2023-05-14T05:09:30;21.90;;;19.67;;
46377;SDS011;32083;47.360;9.650;2023-05-14T05:11:56;20.02;;;18.17;;
46377;SDS011;32083;47.360;9.650;2023-05-14T05:14:22;19.90;;;18.00;;
46377;SDS011;32083;47.360;9.650;2023-05-14T05:16:49;20.33;;;18.33;;
46377;SDS011;32083;47.360;9.650;2023-05-14T05:19:15;20.40;;;18.40;;
46377;SDS011;32083;47.360;9.650;2023-05-14T05:21:42;20.17;;;18.15;;
46377;SDS011;32083;47.360;9.650;2023-05-14T05:24:07;21.70;;;19.60;;
46377;SDS011;32083;47.360;9.650;2023-05-14T05:26:33;19.45;;;17.63;;
46377;SDS011;32083;47.360;9.650;2023-05-14T05:29:02;19.45;;;17.55;;
46377;SDS011;32083;47.360;9.650;2023-05-14T05:31:29;19.40;;;17.42;;
46377;SDS011;32083;47.360;9.650;2023-05-14T05:33:59;20.27;;;18.38;;
46377;SDS011;32083;47.360;9.650;2023-05-14T05:36:25;21.13;;;19.13;;
46377;SDS011;32083;47.360;9.650;2023-05-14T05:38:51;19.75;;;17.77;;
46377;SDS011;32083;47.360;9.650;2023-05-14T05:41:17;21.25;;;19.08;;
46377;SDS011;32083;47.360;9.650;2023-05-14T05:43:43;19.90;;;18.00;;
46377;SDS011;32083;47.360;9.650;2023-05-14T05:46:09;19.35;;;17.45;;
46377;SDS011;32083;47.360;9.650;2023-05-14T05:48:34;20.00;;;18.00;;
46377;SDS011;32083;47.360;9.650;2023-05-14T05:51:00;18.73;;;16.65;;
46377;SDS011;32083;47.360;9.650;2023-05-14T05:53:26;18.60;;;16.80;;
46377;SDS011;32083;47.360;9.650;2023-05-14T05:55:52;18.65;;;16.83;;
46377;SDS011;32083;47.360;9.650;2023-05-14T05:58:18;17.77;;;16.05;;
46377;SDS011;32083;47.360;9.650;2023-05-14T06:00:44;18.85;;;16.95;;
46377;SDS011;32083;47.360;9.650;2023-05-14T06:03:12;19.00;;;17.10;;
46377;SDS011;32083;47.360;9.650;2023-05-14T06:05:38;18.00;;;16.30;;
46377;SDS011;32083;47.360;9.650;2023-05-14T06:08:04;18.55;;;16.75;;
46377;SDS011;32083;47.360;9.650;2023-05-14T06:10:31;18.40;;;16.60;;
46377;SDS011;32083;47.360;9.650;2023-05-14T06:12:58;17.08;;;15.48;;
46377;SDS011;32083;47.360;9.650;2023-05-14T06:15:24;18.67;;;16.88;;
46377;SDS011;32083;47.360;9.650;2023-05-14T06:17:50;17.63;;;15.93;;
46377;SDS011;32083;47.360;9.650;2023-05-14T06:20:16;19.17;;;17.25;;
46377;SDS011;32083;47.360;9.650;2023-05-14T06:22:43;19.10;;;17.20;;
46377;SDS011;32083;47.360;9.650;2023-05-14T06:25:09;19.40;;;17.50;;
46377;SDS011;32083;47.360;9.650;2023-05-14T06:27:35;18.40;;;16.70;;
46377;SDS011;32083;47.360;9.650;2023-05-14T06:30:01;18.40;;;16.70;;
46377;SDS011;32083;47.360;9.650;2023-05-14T06:32:27;19.02;;;17.30;;
46377;SDS011;32083;47.360;9.650;2023-05-14T06:34:53;16.67;;;15.07;;
46377;SDS011;32083;47.360;9.650;2023-05-14T06:37:19;17.08;;;15.38;;
46377;SDS011;32083;47.360;9.650;2023-05-14T06:39:45;18.88;;;17.08;;
46377;SDS011;32083;47.360;9.650;2023-05-14T06:42:14;18.10;;;16.20;;
46377;SDS011;32083;47.360;9.650;2023-05-14T06:44:41;16.60;;;15.02;;
46377;SDS011;32083;47.360;9.650;2023-05-14T06:47:07;17.80;;;16.15;;
46377;SDS011;32083;47.360;9.650;2023-05-14T06:49:33;17.92;;;16.02;;
46377;SDS011;32083;47.360;9.650;2023-05-14T06:51:59;16.73;;;15.10;;
46377;SDS011;32083;47.360;9.650;2023-05-14T06:54:26;17.42;;;15.90;;
46377;SDS011;32083;47.360;9.650;2023-05-14T06:56:52;18.02;;;16.23;;
46377;SDS011;32083;47.360;9.650;2023-05-14T06:59:18;19.42;;;17.52;;
46377;SDS011;32083;47.360;9.650;2023-05-14T07:01:44;17.02;;;15.32;;
46377;SDS011;32083;47.360;9.650;2023-05-14T07:04:10;17.15;;;15.40;;
46377;SDS011;32083;47.360;9.650;2023-05-14T07:06:36;17.35;;;15.75;;
46377;SDS011;32083;47.360;9.650;2023-05-14T07:09:02;18.35;;;16.50;;
46377;SDS011;32083;47.360;9.650;2023-05-14T07:11:28;16.92;;;15.32;;
46377;SDS011;32083;47.360;9.650;2023-05-14T07:13:54;17.13;;;15.52;;
46377;SDS011;32083;47.360;9.650;2023-05-14T07:16:20;16.88;;;15.25;;
46377;SDS011;32083;47.360;9.650;2023-05-14T07:18:46;16.10;;;14.45;;
46377;SDS011;32083;47.360;9.650;2023-05-14T07:21:12;18.13;;;16.35;;
46377;SDS011;32083;47.360;9.650;2023-05-14T07:23:38;18.17;;;16.17;;
46377;SDS011;32083;47.360;9.650;2023-05-14T07:26:05;17.13;;;15.43;;
46377;SDS011;32083;47.360;9.650;2023-05-14T07:28:32;17.40;;;15.80;;
46377;SDS011;32083;47.360;9.650;2023-05-14T07:30:58;17.73;;;15.93;;
46377;SDS011;32083;47.360;9.650;2023-05-14T07:33:24;17.65;;;15.98;;
46377;SDS011;32083;47.360;9.650;2023-05-14T07:35:51;16.48;;;14.93;;
46377;SDS011;32083;47.360;9.650;2023-05-14T07:38:18;16.33;;;14.82;;
46377;SDS011;32083;47.360;9.650;2023-05-14T07:40:45;17.40;;;15.70;;
46377;SDS011;32083;47.360;9.650;2023-05-14T07:43:11;18.95;;;17.17;;
46377;SDS011;32083;47.360;9.650;2023-05-14T07:45:37;16.55;;;14.85;;
46377;SDS011;32083;47.360;9.650;2023-05-14T07:48:03;17.27;;;15.70;;
46377;SDS011;32083;47.360;9.650;2023-05-14T07:50:29;17.42;;;15.65;;
46377;SDS011;32083;47.360;9.650;2023-05-14T07:52:55;17.50;;;15.88;;
46377;SDS011;32083;47.360;9.650;2023-05-14T07:55:21;18.10;;;16.25;;
46377;SDS011;32083;47.360;9.650;2023-05-14T07:57:47;18.25;;;16.55;;
46377;SDS011;32083;47.360;9.650;2023-05-14T08:00:14;17.95;;;16.17;;
46377;SDS011;32083;47.360;9.650;2023-05-14T08:02:41;18.40;;;16.60;;
46377;SDS011;32083;47.360;9.650;2023-05-14T08:05:08;17.63;;;15.73;;
46377;SDS011;32083;47.360;9.650;2023-05-14T08:07:34;18.10;;;16.40;;
46377;SDS011;32083;47.360;9.650;2023-05-14T08:10:00;16.67;;;14.98;;
46377;SDS011;32083;47.360;9.650;2023-05-14T08:12:26;17.65;;;15.57;;
46377;SDS011;32083;47.360;9.650;2023-05-14T08:14:52;18.13;;;16.35;;
46377;SDS011;32083;47.360;9.650;2023-05-14T08:17:18;18.35;;;16.65;;
46377;SDS011;32083;47.360;9.650;2023-05-14T08:19:44;17.45;;;15.75;;
46377;SDS011;32083;47.360;9.650;2023-05-14T08:22:10;16.33;;;14.82;;
46377;SDS011;32083;47.360;9.650;2023-05-14T08:24:36;19.13;;;17.00;;
46377;SDS011;32083;47.360;9.650;2023-05-14T08:27:04;17.00;;;15.40;;
46377;SDS011;32083;47.360;9.650;2023-05-14T08:29:30;18.70;;;16.60;;
46377;SDS011;32083;47.360;9.650;2023-05-14T08:31:57;17.88;;;16.17;;
46377;SDS011;32083;47.360;9.650;2023-05-14T08:34:22;16.83;;;15.15;;
46377;SDS011;32083;47.360;9.650;2023-05-14T08:36:48;16.45;;;14.75;;
46377;SDS011;32083;47.360;9.650;2023-05-14T08:39:15;18.67;;;15.73;;
46377;SDS011;32083;47.360;9.650;2023-05-14T08:41:41;16.35;;;14.75;;
46377;SDS011;32083;47.360;9.650;2023-05-14T08:46:37;15.02;;;13.63;;
46377;SDS011;32083;47.360;9.650;2023-05-14T08:51:41;13.50;;;12.32;;
46377;SDS011;32083;47.360;9.650;2023-05-14T08:54:16;15.38;;;13.93;;
46377;SDS011;32083;47.360;9.650;2023-05-14T08:56:43;13.95;;;12.55;;
46377;SDS011;32083;47.360;9.650;2023-05-14T08:59:12;13.23;;;12.02;;
46377;SDS011;32083;47.360;9.650;2023-05-14T09:01:40;15.23;;;13.63;;
46377;SDS011;32083;47.360;9.650;2023-05-14T09:04:17;13.63;;;12.32;;
46377;SDS011;32083;47.360;9.650;2023-05-14T09:06:47;16.55;;;12.00;;
46377;SDS011;32083;47.360;9.650;2023-05-14T09:09:15;11.27;;;10.25;;
46377;SDS011;32083;47.360;9.650;2023-05-14T09:11:44;12.50;;;11.15;;
46377;SDS011;32083;47.360;9.650;2023-05-14T09:14:11;10.43;;;9.43;;
46377;SDS011;32083;47.360;9.650;2023-05-14T09:16:37;10.20;;;9.18;;
46377;SDS011;32083;47.360;9.650;2023-05-14T09:19:06;10.23;;;9.23;;
46377;SDS011;32083;47.360;9.650;2023-05-14T09:21:33;12.75;;;11.45;;
46377;SDS011;32083;47.360;9.650;2023-05-14T09:23:59;10.93;;;9.93;;
46377;SDS011;32083;47.360;9.650;2023-05-14T09:26:26;10.15;;;9.18;;
46377;SDS011;32083;47.360;9.650;2023-05-14T09:28:57;9.98;;;8.98;;
46377;SDS011;32083;47.360;9.650;2023-05-14T09:31:28;10.18;;;8.93;;
46377;SDS011;32083;47.360;9.650;2023-05-14T09:33:56;9.65;;;8.63;;
46377;SDS011;32083;47.360;9.650;2023-05-14T09:36:23;10.38;;;9.38;;
46377;SDS011;32083;47.360;9.650;2023-05-14T09:38:51;10.10;;;9.10;;
46377;SDS011;32083;47.360;9.650;2023-05-14T09:41:20;9.30;;;8.43;;
46377;SDS011;32083;47.360;9.650;2023-05-14T09:43:47;8.45;;;7.65;;
46377;SDS011;32083;47.360;9.650;2023-05-14T09:46:14;10.18;;;9.23;;
46377;SDS011;32083;47.360;9.650;2023-05-14T09:48:40;10.35;;;9.35;;
46377;SDS011;32083;47.360;9.650;2023-05-14T09:51:08;6.70;;;6.10;;
46377;SDS011;32083;47.360;9.650;2023-05-14T09:53:35;7.78;;;7.07;;
46377;SDS011;32083;47.360;9.650;2023-05-14T09:56:01;8.50;;;7.70;;
46377;SDS011;32083;47.360;9.650;2023-05-14T09:58:28;6.35;;;5.75;;
46377;SDS011;32083;47.360;9.650;2023-05-14T10:00:54;3.40;;;3.10;;
46377;SDS011;32083;47.360;9.650;2023-05-14T10:03:23;3.75;;;3.45;;
46377;SDS011;32083;47.360;9.650;2023-05-14T10:05:52;5.03;;;4.55;;
46377;SDS011;32083;47.360;9.650;2023-05-14T10:08:24;6.03;;;5.50;;
46377;SDS011;32083;47.360;9.650;2023-05-14T10:10:54;4.30;;;3.90;;
46377;SDS011;32083;47.360;9.650;2023-05-14T10:13:23;4.38;;;3.97;;
46377;SDS011;32083;47.360;9.650;2023-05-14T10:16:04;3.05;;;2.75;;
46377;SDS011;32083;47.360;9.650;2023-05-14T10:18:42;3.47;;;3.17;;
46377;SDS011;32083;47.360;9.650;2023-05-14T10:21:15;4.00;;;3.70;;
46377;SDS011;32083;47.360;9.650;2023-05-14T10:23:45;3.42;;;3.13;;
46377;SDS011;32083;47.360;9.650;2023-05-14T10:26:13;3.80;;;3.28;;
46377;SDS011;32083;47.360;9.650;2023-05-14T10:28:39;3.97;;;3.67;;
46377;SDS011;32083;47.360;9.650;2023-05-14T10:31:09;5.35;;;4.85;;
46377;SDS011;32083;47.360;9.650;2023-05-14T10:33:46;6.88;;;6.25;;
46377;SDS011;32083;47.360;9.650;2023-05-14T10:36:14;7.38;;;6.68;;
46377;SDS011;32083;47.360;9.650;2023-05-14T10:38:44;7.93;;;7.07;;
46377;SDS011;32083;47.360;9.650;2023-05-14T10:41:12;8.75;;;7.85;;
46377;SDS011;32083;47.360;9.650;2023-05-14T10:43:45;8.75;;;7.25;;
46377;SDS011;32083;47.360;9.650;2023-05-14T10:46:12;9.27;;;8.38;;
46377;SDS011;32083;47.360;9.650;2023-05-14T10:48:40;9.77;;;8.77;;
46377;SDS011;32083;47.360;9.650;2023-05-14T10:51:10;9.85;;;8.93;;
46377;SDS011;32083;47.360;9.650;2023-05-14T10:53:37;10.23;;;9.27;;
46377;SDS011;32083;47.360;9.650;2023-05-14T10:56:08;10.32;;;9.32;;
46377;SDS011;32083;47.360;9.650;2023-05-14T10:58:36;12.38;;;11.07;;
46377;SDS011;32083;47.360;9.650;2023-05-14T11:01:10;12.38;;;11.18;;
46377;SDS011;32083;47.360;9.650;2023-05-14T11:03:41;9.93;;;8.73;;
46377;SDS011;32083;47.360;9.650;2023-05-14T11:06:10;10.00;;;8.55;;
46377;SDS011;32083;47.360;9.650;2023-05-14T11:08:38;9.48;;;8.57;;
46377;SDS011;32083;47.360;9.650;2023-05-14T11:11:05;9.30;;;8.40;;
46377;SDS011;32083;47.360;9.650;2023-05-14T11:13:31;9.05;;;7.43;;
46377;SDS011;32083;47.360;9.650;2023-05-14T11:15:59;6.35;;;5.75;;
46377;SDS011;32083;47.360;9.650;2023-05-14T11:18:30;10.00;;;7.97;;
46377;SDS011;32083;47.360;9.650;2023-05-14T11:21:01;9.55;;;8.65;;
46377;SDS011;32083;47.360;9.650;2023-05-14T11:23:27;11.70;;;10.05;;
46377;SDS011;32083;47.360;9.650;2023-05-14T11:25:54;9.63;;;8.15;;
46377;SDS011;32083;47.360;9.650;2023-05-14T11:28:24;11.80;;;10.60;;
46377;SDS011;32083;47.360;9.650;2023-05-14T11:30:51;10.70;;;9.60;;
46377;SDS011;32083;47.360;9.650;2023-05-14T11:33:18;11.38;;;10.27;;
46377;SDS011;32083;47.360;9.650;2023-05-14T11:35:48;15.27;;;12.13;;
46377;SDS011;32083;47.360;9.650;2023-05-14T11:38:17;14.00;;;12.60;;
46377;SDS011;32083;47.360;9.650;2023-05-14T11:40:51;14.13;;;12.68;;
46377;SDS011;32083;47.360;9.650;2023-05-14T11:43:21;14.23;;;12.70;;
46377;SDS011;32083;47.360;9.650;2023-05-14T11:45:53;18.50;;;15.20;;
46377;SDS011;32083;47.360;9.650;2023-05-14T11:48:20;15.73;;;14.07;;
46377;SDS011;32083;47.360;9.650;2023-05-14T11:50:47;12.95;;;10.98;;
46377;SDS011;32083;47.360;9.650;2023-05-14T11:53:16;12.40;;;9.68;;
46377;SDS011;32083;47.360;9.650;2023-05-14T11:55:49;11.63;;;9.02;;
46377;SDS011;32083;47.360;9.650;2023-05-14T11:58:15;10.63;;;9.25;;
46377;SDS011;32083;47.360;9.650;2023-05-14T12:00:49;11.77;;;9.82;;
46377;SDS011;32083;47.360;9.650;2023-05-14T12:03:15;12.93;;;10.93;;
46377;SDS011;32083;47.360;9.650;2023-05-14T12:05:59;10.95;;;9.02;;
46377;SDS011;32083;47.360;9.650;2023-05-14T12:08:27;12.30;;;11.00;;
46377;SDS011;32083;47.360;9.650;2023-05-14T12:10:54;13.93;;;11.80;;
46377;SDS011;32083;47.360;9.650;2023-05-14T12:13:27;15.13;;;12.00;;
46377;SDS011;32083;47.360;9.650;2023-05-14T12:15:54;13.00;;;11.75;;
46377;SDS011;32083;47.360;9.650;2023-05-14T12:18:26;14.02;;;12.38;;
46377;SDS011;32083;47.360;9.650;2023-05-14T12:20:53;15.50;;;12.75;;
46377;SDS011;32083;47.360;9.650;2023-05-14T12:23:25;14.65;;;13.15;;
46377;SDS011;32083;47.360;9.650;2023-05-14T12:25:55;12.43;;;11.02;;
46377;SDS011;32083;47.360;9.650;2023-05-14T12:28:27;10.57;;;8.88;;
46377;SDS011;32083;47.360;9.650;2023-05-14T12:30:56;11.00;;;9.15;;
46377;SDS011;32083;47.360;9.650;2023-05-14T12:33:23;11.60;;;10.27;;
46377;SDS011;32083;47.360;9.650;2023-05-14T12:35:51;11.73;;;10.02;;
46377;SDS011;32083;47.360;9.650;2023-05-14T12:38:27;7.13;;;6.43;;
46377;SDS011;32083;47.360;9.650;2023-05-14T12:40:53;4.93;;;4.43;;
46377;SDS011;32083;47.360;9.650;2023-05-14T12:43:19;4.97;;;4.32;;
46377;SDS011;32083;47.360;9.650;2023-05-14T12:45:45;6.20;;;5.13;;
46377;SDS011;32083;47.360;9.650;2023-05-14T12:48:11;6.82;;;6.13;;
46377;SDS011;32083;47.360;9.650;2023-05-14T12:50:37;5.55;;;4.95;;
46377;SDS011;32083;47.360;9.650;2023-05-14T12:53:03;6.55;;;5.18;;
46377;SDS011;32083;47.360;9.650;2023-05-14T12:55:29;6.47;;;5.68;;
46377;SDS011;32083;47.360;9.650;2023-05-14T12:57:55;6.75;;;5.72;;
46377;SDS011;32083;47.360;9.650;2023-05-14T13:00:21;8.65;;;7.40;;
46377;SDS011;32083;47.360;9.650;2023-05-14T13:02:48;9.90;;;8.60;;
46377;SDS011;32083;47.360;9.650;2023-05-14T13:05:14;12.40;;;9.15;;
46377;SDS011;32083;47.360;9.650;2023-05-14T13:07:40;9.75;;;8.75;;
46377;SDS011;32083;47.360;9.650;2023-05-14T13:10:06;11.95;;;10.25;;
46377;SDS011;32083;47.360;9.650;2023-05-14T13:12:33;9.98;;;9.02;;
46377;SDS011;32083;47.360;9.650;2023-05-14T13:14:59;11.02;;;9.80;;
46377;SDS011;32083;47.360;9.650;2023-05-14T13:17:25;11.55;;;9.77;;
46377;SDS011;32083;47.360;9.650;2023-05-14T13:19:51;11.65;;;10.45;;
46377;SDS011;32083;47.360;9.650;2023-05-14T13:22:17;12.15;;;10.32;;
46377;SDS011;32083;47.360;9.650;2023-05-14T13:24:43;13.10;;;11.70;;
46377;SDS011;32083;47.360;9.650;2023-05-14T13:27:10;12.05;;;10.82;;
46377;SDS011;32083;47.360;9.650;2023-05-14T13:29:36;12.00;;;10.60;;
46377;SDS011;32083;47.360;9.650;2023-05-14T13:32:01;13.93;;;11.65;;
46377;SDS011;32083;47.360;9.650;2023-05-14T13:34:27;11.98;;;10.75;;
46377;SDS011;32083;47.360;9.650;2023-05-14T13:36:53;11.80;;;10.23;;
46377;SDS011;32083;47.360;9.650;2023-05-14T13:39:20;10.63;;;9.57;;
46377;SDS011;32083;47.360;9.650;2023-05-14T13:41:50;9.18;;;8.27;;
46377;SDS011;32083;47.360;9.650;2023-05-14T13:44:20;9.48;;;7.50;;
46377;SDS011;32083;47.360;9.650;2023-05-14T13:46:46;8.43;;;7.25;;
46377;SDS011;32083;47.360;9.650;2023-05-14T13:49:12;9.32;;;8.23;;
46377;SDS011;32083;47.360;9.650;2023-05-14T13:51:38;9.93;;;8.25;;
46377;SDS011;32083;47.360;9.650;2023-05-14T13:54:04;10.73;;;9.60;;
46377;SDS011;32083;47.360;9.650;2023-05-14T13:56:30;9.95;;;9.00;;
46377;SDS011;32083;47.360;9.650;2023-05-14T13:58:56;10.50;;;8.68;;
46377;SDS011;32083;47.360;9.650;2023-05-14T14:01:22;9.95;;;8.80;;
46377;SDS011;32083;47.360;9.650;2023-05-14T14:03:48;9.90;;;8.23;;
46377;SDS011;32083;47.360;9.650;2023-05-14T14:06:14;9.77;;;8.18;;
46377;SDS011;32083;47.360;9.650;2023-05-14T14:08:40;12.07;;;9.05;;
46377;SDS011;32083;47.360;9.650;2023-05-14T14:11:06;10.75;;;9.13;;
46377;SDS011;32083;47.360;9.650;2023-05-14T14:13:32;8.82;;;7.68;;
46377;SDS011;32083;47.360;9.650;2023-05-14T14:15:58;11.05;;;9.02;;
46377;SDS011;32083;47.360;9.650;2023-05-14T14:18:24;10.93;;;9.50;;
46377;SDS011;32083;47.360;9.650;2023-05-14T14:20:51;11.60;;;10.35;;
46377;SDS011;32083;47.360;9.650;2023-05-14T14:23:17;9.93;;;8.75;;
46377;SDS011;32083;47.360;9.650;2023-05-14T14:25:43;12.50;;;9.95;;
46377;SDS011;32083;47.360;9.650;2023-05-14T14:28:09;11.25;;;10.02;;
46377;SDS011;32083;47.360;9.650;2023-05-14T14:30:35;10.88;;;9.65;;
46377;SDS011;32083;47.360;9.650;2023-05-14T14:33:01;11.57;;;10.27;;
46377;SDS011;32083;47.360;9.650;2023-05-14T14:35:27;10.82;;;9.57;;
46377;SDS011;32083;47.360;9.650;2023-05-14T14:37:54;11.25;;;10.13;;
46377;SDS011;32083;47.360;9.650;2023-05-14T14:40:20;13.27;;;10.88;;
46377;SDS011;32083;47.360;9.650;2023-05-14T14:42:48;11.70;;;10.35;;
46377;SDS011;32083;47.360;9.650;2023-05-14T14:45:14;12.25;;;10.80;;
46377;SDS011;32083;47.360;9.650;2023-05-14T14:47:43;12.63;;;10.18;;
46377;SDS011;32083;47.360;9.650;2023-05-14T14:50:13;12.45;;;10.68;;
46377;SDS011;32083;47.360;9.650;2023-05-14T14:52:39;12.20;;;10.88;;
46377;SDS011;32083;47.360;9.650;2023-05-14T14:55:08;13.80;;;11.70;;
46377;SDS011;32083;47.360;9.650;2023-05-14T14:57:35;12.38;;;11.07;;
46377;SDS011;32083;47.360;9.650;2023-05-14T15:00:01;12.57;;;11.27;;
46377;SDS011;32083;47.360;9.650;2023-05-14T15:02:27;12.18;;;10.68;;
46377;SDS011;32083;47.360;9.650;2023-05-14T15:04:54;13.93;;;12.43;;
46377;SDS011;32083;47.360;9.650;2023-05-14T15:07:20;13.40;;;9.98;;
46377;SDS011;32083;47.360;9.650;2023-05-14T15:09:46;13.18;;;11.38;;
46377;SDS011;32083;47.360;9.650;2023-05-14T15:12:12;13.85;;;12.05;;
46377;SDS011;32083;47.360;9.650;2023-05-14T15:14:38;13.75;;;12.23;;
46377;SDS011;32083;47.360;9.650;2023-05-14T15:17:04;12.82;;;11.52;;
46377;SDS011;32083;47.360;9.650;2023-05-14T15:19:30;12.10;;;10.77;;
46377;SDS011;32083;47.360;9.650;2023-05-14T15:21:57;13.07;;;11.80;;
46377;SDS011;32083;47.360;9.650;2023-05-14T15:24:23;11.55;;;10.43;;
46377;SDS011;32083;47.360;9.650;2023-05-14T15:26:50;11.75;;;10.55;;
46377;SDS011;32083;47.360;9.650;2023-05-14T15:29:16;12.38;;;11.07;;
46377;SDS011;32083;47.360;9.650;2023-05-14T15:31:43;12.48;;;10.85;;
46377;SDS011;32083;47.360;9.650;2023-05-14T15:34:09;11.57;;;10.38;;
46377;SDS011;32083;47.360;9.650;2023-05-14T15:36:35;11.68;;;10.48;;
46377;SDS011;32083;47.360;9.650;2023-05-14T15:39:01;10.73;;;9.63;;
46377;SDS011;32083;47.360;9.650;2023-05-14T15:41:27;11.88;;;10.60;;
46377;SDS011;32083;47.360;9.650;2023-05-14T15:43:53;12.52;;;11.30;;
46377;SDS011;32083;47.360;9.650;2023-05-14T15:46:20;12.50;;;10.95;;
46377;SDS011;32083;47.360;9.650;2023-05-14T15:48:47;13.00;;;11.05;;
46377;SDS011;32083;47.360;9.650;2023-05-14T15:51:13;13.68;;;10.90;;
46377;SDS011;32083;47.360;9.650;2023-05-14T15:53:39;13.68;;;12.35;;
46377;SDS011;32083;47.360;9.650;2023-05-14T15:56:05;15.10;;;12.30;;
46377;SDS011;32083;47.360;9.650;2023-05-14T15:58:32;13.38;;;12.07;;
46377;SDS011;32083;47.360;9.650;2023-05-14T16:00:58;13.73;;;12.30;;
46377;SDS011;32083;47.360;9.650;2023-05-14T16:03:24;13.20;;;11.82;;
46377;SDS011;32083;47.360;9.650;2023-05-14T16:05:50;16.90;;;13.88;;
46377;SDS011;32083;47.360;9.650;2023-05-14T16:08:16;14.30;;;13.00;;
46377;SDS011;32083;47.360;9.650;2023-05-14T16:10:42;15.43;;;13.00;;
46377;SDS011;32083;47.360;9.650;2023-05-14T16:13:08;15.90;;;14.13;;
46377;SDS011;32083;47.360;9.650;2023-05-14T16:15:34;14.45;;;13.05;;
46377;SDS011;32083;47.360;9.650;2023-05-14T16:18:00;15.27;;;12.75;;
46377;SDS011;32083;47.360;9.650;2023-05-14T16:20:26;15.43;;;13.95;;
46377;SDS011;32083;47.360;9.650;2023-05-14T16:22:52;15.45;;;13.38;;
46377;SDS011;32083;47.360;9.650;2023-05-14T16:25:18;13.27;;;11.85;;
46377;SDS011;32083;47.360;9.650;2023-05-14T16:27:44;13.68;;;12.27;;
46377;SDS011;32083;47.360;9.650;2023-05-14T16:30:10;12.43;;;11.13;;
46377;SDS011;32083;47.360;9.650;2023-05-14T16:32:36;13.00;;;11.57;;
46377;SDS011;32083;47.360;9.650;2023-05-14T16:35:02;13.00;;;11.70;;
46377;SDS011;32083;47.360;9.650;2023-05-14T16:37:28;12.63;;;10.85;;
46377;SDS011;32083;47.360;9.650;2023-05-14T16:39:55;11.32;;;9.95;;
46377;SDS011;32083;47.360;9.650;2023-05-14T16:42:21;16.90;;;10.75;;
46377;SDS011;32083;47.360;9.650;2023-05-14T16:44:47;12.48;;;10.98;;
46377;SDS011;32083;47.360;9.650;2023-05-14T16:47:13;10.65;;;9.65;;
46377;SDS011;32083;47.360;9.650;2023-05-14T16:49:39;12.50;;;10.32;;
46377;SDS011;32083;47.360;9.650;2023-05-14T16:52:05;10.00;;;9.00;;
46377;SDS011;32083;47.360;9.650;2023-05-14T16:54:32;9.48;;;8.48;;
46377;SDS011;32083;47.360;9.650;2023-05-14T16:56:58;10.38;;;9.38;;
46377;SDS011;32083;47.360;9.650;2023-05-14T16:59:24;10.45;;;9.35;;
46377;SDS011;32083;47.360;9.650;2023-05-14T17:01:50;10.13;;;9.13;;
46377;SDS011;32083;47.360;9.650;2023-05-14T17:04:16;8.35;;;7.50;;
46377;SDS011;32083;47.360;9.650;2023-05-14T17:06:42;8.27;;;7.45;;
46377;SDS011;32083;47.360;9.650;2023-05-14T17:09:09;9.80;;;8.40;;
46377;SDS011;32083;47.360;9.650;2023-05-14T17:11:35;8.70;;;7.75;;
46377;SDS011;32083;47.360;9.650;2023-05-14T17:14:01;9.15;;;8.18;;
46377;SDS011;32083;47.360;9.650;2023-05-14T17:16:27;11.02;;;8.95;;
46377;SDS011;32083;47.360;9.650;2023-05-14T17:18:53;9.43;;;8.45;;
46377;SDS011;32083;47.360;9.650;2023-05-14T17:21:19;8.52;;;7.70;;
46377;SDS011;32083;47.360;9.650;2023-05-14T17:23:45;9.52;;;8.57;;
46377;SDS011;32083;47.360;9.650;2023-05-14T17:26:11;9.80;;;8.73;;
46377;SDS011;32083;47.360;9.650;2023-05-14T17:28:37;10.52;;;8.73;;
46377;SDS011;32083;47.360;9.650;2023-05-14T17:31:03;8.93;;;8.02;;
46377;SDS011;32083;47.360;9.650;2023-05-14T17:33:30;11.48;;;10.27;;
46377;SDS011;32083;47.360;9.650;2023-05-14T17:35:56;10.73;;;8.88;;
46377;SDS011;32083;47.360;9.650;2023-05-14T17:38:23;9.95;;;8.25;;
46377;SDS011;32083;47.360;9.650;2023-05-14T17:40:49;9.98;;;8.98;;
46377;SDS011;32083;47.360;9.650;2023-05-14T17:43:15;11.30;;;8.23;;